sensor_id;sensor_type;location;lat;lon;timestamp;temperature;humidity
31991;DHT22;18508;49.386;8.370;2023-05-07T00:02:17;15.30;99.90
31991;DHT22;18508;49.386;8.370;2023-05-07T00:04:46;15.20;99.90
31991;DHT22;18508;49.386;8.370;2023-05-07T00:07:15;15.20;99.90
31991;DHT22;18508;49.386;8.370;2023-05-07T00:09:43;15.20;99.90
31991;DHT22;18508;49.386;8.370;2023-05-07T00:12:11;15.20;99.90
31991;DHT22;18508;49.386;8.370;2023-05-07T00:14:39;15.20;99.90
31991;DHT22;18508;49.386;8.370;2023-05-07T00:17:07;15.10;99.90
31991;DHT22;18508;49.386;8.370;2023-05-07T00:19:35;15.10;99.90
31991;DHT22;18508;49.386;8.370;2023-05-07T00:22:06;15.00;99.90
31991;DHT22;18508;49.386;8.370;2023-05-07T00:24:34;15.10;99.90
31991;DHT22;18508;49.386;8.370;2023-05-07T00:27:03;15.00;99.90
31991;DHT22;18508;49.386;8.370;2023-05-07T00:29:31;15.00;99.90
31991;DHT22;18508;49.386;8.370;2023-05-07T00:32:00;14.80;99.90
31991;DHT22;18508;49.386;8.370;2023-05-07T00:34:28;15.00;99.90
31991;DHT22;18508;49.386;8.370;2023-05-07T00:36:56;14.90;99.90
31991;DHT22;18508;49.386;8.370;2023-05-07T00:39:31;14.90;99.90
31991;DHT22;18508;49.386;8.370;2023-05-07T00:41:59;14.90;99.90
31991;DHT22;18508;49.386;8.370;2023-05-07T00:44:27;14.80;99.90
31991;DHT22;18508;49.386;8.370;2023-05-07T00:46:57;14.90;99.90
31991;DHT22;18508;49.386;8.370;2023-05-07T00:49:34;14.80;99.90
31991;DHT22;18508;49.386;8.370;2023-05-07T00:52:04;14.80;99.90
31991;DHT22;18508;49.386;8.370;2023-05-07T00:54:35;14.70;99.90
31991;DHT22;18508;49.386;8.370;2023-05-07T00:57:04;14.80;99.90
31991;DHT22;18508;49.386;8.370;2023-05-07T00:59:33;14.70;99.90
31991;DHT22;18508;49.386;8.370;2023-05-07T01:02:01;14.70;99.90
31991;DHT22;18508;49.386;8.370;2023-05-07T01:04:30;14.60;99.90
31991;DHT22;18508;49.386;8.370;2023-05-07T01:06:59;14.60;99.90
31991;DHT22;18508;49.386;8.370;2023-05-07T01:09:29;14.60;99.90
31991;DHT22;18508;49.386;8.370;2023-05-07T01:11:59;14.50;99.90
31991;DHT22;18508;49.386;8.370;2023-05-07T01:14:27;14.50;99.90
31991;DHT22;18508;49.386;8.370;2023-05-07T01:16:56;14.50;99.90
31991;DHT22;18508;49.386;8.370;2023-05-07T01:19:25;14.40;99.90
31991;DHT22;18508;49.386;8.370;2023-05-07T01:21:57;14.40;99.90
31991;DHT22;18508;49.386;8.370;2023-05-07T01:24:30;14.40;99.90
31991;DHT22;18508;49.386;8.370;2023-05-07T01:26:59;14.30;99.90
31991;DHT22;18508;49.386;8.370;2023-05-07T01:29:28;14.30;99.90
31991;DHT22;18508;49.386;8.370;2023-05-07T01:31:57;14.20;99.90
31991;DHT22;18508;49.386;8.370;2023-05-07T01:34:28;14.20;99.90
31991;DHT22;18508;49.386;8.370;2023-05-07T01:36:59;14.20;99.90
31991;DHT22;18508;49.386;8.370;2023-05-07T01:39:30;14.10;99.90
31991;DHT22;18508;49.386;8.370;2023-05-07T01:41:59;14.10;99.90
31991;DHT22;18508;49.386;8.370;2023-05-07T01:44:27;14.10;99.90
31991;DHT22;18508;49.386;8.370;2023-05-07T01:46:57;14.10;99.90
31991;DHT22;18508;49.386;8.370;2023-05-07T01:49:25;14.10;99.90
31991;DHT22;18508;49.386;8.370;2023-05-07T01:51:54;14.00;99.90
31991;DHT22;18508;49.386;8.370;2023-05-07T01:54:25;14.00;99.90
31991;DHT22;18508;49.386;8.370;2023-05-07T01:56:56;14.00;99.90
31991;DHT22;18508;49.386;8.370;2023-05-07T01:59:24;14.00;99.90
31991;DHT22;18508;49.386;8.370;2023-05-07T02:01:53;13.90;99.90
31991;DHT22;18508;49.386;8.370;2023-05-07T02:04:23;13.90;99.90
31991;DHT22;18508;49.386;8.370;2023-05-07T02:06:51;13.90;99.90
31991;DHT22;18508;49.386;8.370;2023-05-07T02:09:21;13.90;99.90
31991;DHT22;18508;49.386;8.370;2023-05-07T02:11:49;13.90;99.90
31991;DHT22;18508;49.386;8.370;2023-05-07T02:14:19;13.90;99.90
31991;DHT22;18508;49.386;8.370;2023-05-07T02:16:47;13.90;99.90
31991;DHT22;18508;49.386;8.370;2023-05-07T02:19:15;13.90;99.90
31991;DHT22;18508;49.386;8.370;2023-05-07T02:21:45;13.90;99.90
31991;DHT22;18508;49.386;8.370;2023-05-07T02:24:13;13.80;99.90
31991;DHT22;18508;49.386;8.370;2023-05-07T02:26:42;13.80;99.90
31991;DHT22;18508;49.386;8.370;2023-05-07T02:29:10;13.80;99.90
31991;DHT22;18508;49.386;8.370;2023-05-07T02:31:40;13.80;99.90
31991;DHT22;18508;49.386;8.370;2023-05-07T02:34:08;13.80;99.90
31991;DHT22;18508;49.386;8.370;2023-05-07T02:36:36;13.80;99.90
31991;DHT22;18508;49.386;8.370;2023-05-07T02:39:04;13.80;99.90
31991;DHT22;18508;49.386;8.370;2023-05-07T02:41:33;13.70;99.90
31991;DHT22;18508;49.386;8.370;2023-05-07T02:44:01;13.70;99.90
31991;DHT22;18508;49.386;8.370;2023-05-07T02:46:29;13.70;99.90
31991;DHT22;18508;49.386;8.370;2023-05-07T02:49:00;13.70;99.90
31991;DHT22;18508;49.386;8.370;2023-05-07T02:51:29;13.60;99.90
31991;DHT22;18508;49.386;8.370;2023-05-07T02:53:58;13.60;99.90
31991;DHT22;18508;49.386;8.370;2023-05-07T02:56:27;13.60;99.90
31991;DHT22;18508;49.386;8.370;2023-05-07T02:58:55;13.50;99.90
31991;DHT22;18508;49.386;8.370;2023-05-07T03:01:23;13.50;99.90
31991;DHT22;18508;49.386;8.370;2023-05-07T03:03:52;13.50;99.90
31991;DHT22;18508;49.386;8.370;2023-05-07T03:06:21;13.50;99.90
31991;DHT22;18508;49.386;8.370;2023-05-07T03:08:49;13.50;99.90
31991;DHT22;18508;49.386;8.370;2023-05-07T03:11:18;13.40;99.90
31991;DHT22;18508;49.386;8.370;2023-05-07T03:13:46;13.50;99.90
31991;DHT22;18508;49.386;8.370;2023-05-07T03:16:17;13.40;99.90
31991;DHT22;18508;49.386;8.370;2023-05-07T03:18:45;13.40;99.90
31991;DHT22;18508;49.386;8.370;2023-05-07T03:21:13;13.30;99.90
31991;DHT22;18508;49.386;8.370;2023-05-07T03:23:43;13.30;99.90
31991;DHT22;18508;49.386;8.370;2023-05-07T03:26:11;13.30;99.90
31991;DHT22;18508;49.386;8.370;2023-05-07T03:28:40;13.30;99.90
31991;DHT22;18508;49.386;8.370;2023-05-07T03:31:09;13.20;99.90
31991;DHT22;18508;49.386;8.370;2023-05-07T03:33:42;13.20;99.90
31991;DHT22;18508;49.386;8.370;2023-05-07T03:36:17;13.10;99.90
31991;DHT22;18508;49.386;8.370;2023-05-07T03:38:47;13.10;99.90
31991;DHT22;18508;49.386;8.370;2023-05-07T03:41:15;13.10;99.90
31991;DHT22;18508;49.386;8.370;2023-05-07T03:43:46;13.10;99.90
31991;DHT22;18508;49.386;8.370;2023-05-07T03:46:15;13.10;99.90
31991;DHT22;18508;49.386;8.370;2023-05-07T03:48:43;13.10;99.90
31991;DHT22;18508;49.386;8.370;2023-05-07T03:51:11;13.10;99.90
31991;DHT22;18508;49.386;8.370;2023-05-07T03:53:40;13.10;99.90
31991;DHT22;18508;49.386;8.370;2023-05-07T03:56:12;13.10;99.90
31991;DHT22;18508;49.386;8.370;2023-05-07T03:58:40;13.10;99.90
31991;DHT22;18508;49.386;8.370;2023-05-07T04:01:08;13.00;99.90
31991;DHT22;18508;49.386;8.370;2023-05-07T04:03:36;13.00;99.90
31991;DHT22;18508;49.386;8.370;2023-05-07T04:06:05;13.00;99.90
31991;DHT22;18508;49.386;8.370;2023-05-07T04:08:35;13.00;99.90
31991;DHT22;18508;49.386;8.370;2023-05-07T04:11:04;13.00;99.90
31991;DHT22;18508;49.386;8.370;2023-05-07T04:13:33;13.00;99.90
31991;DHT22;18508;49.386;8.370;2023-05-07T04:16:02;13.00;99.90
31991;DHT22;18508;49.386;8.370;2023-05-07T04:18:30;12.90;99.90
31991;DHT22;18508;49.386;8.370;2023-05-07T04:20:59;13.00;99.90
31991;DHT22;18508;49.386;8.370;2023-05-07T04:23:28;13.00;99.90
31991;DHT22;18508;49.386;8.370;2023-05-07T04:25:57;13.10;99.90
31991;DHT22;18508;49.386;8.370;2023-05-07T04:28:27;13.10;99.90
31991;DHT22;18508;49.386;8.370;2023-05-07T04:30:57;13.10;99.90
31991;DHT22;18508;49.386;8.370;2023-05-07T04:33:26;13.10;99.90
31991;DHT22;18508;49.386;8.370;2023-05-07T04:35:54;13.10;99.90
31991;DHT22;18508;49.386;8.370;2023-05-07T04:38:22;13.20;99.90
31991;DHT22;18508;49.386;8.370;2023-05-07T04:40:51;13.20;99.90
31991;DHT22;18508;49.386;8.370;2023-05-07T04:43:19;13.30;99.90
31991;DHT22;18508;49.386;8.370;2023-05-07T04:45:49;13.40;99.90
31991;DHT22;18508;49.386;8.370;2023-05-07T04:48:19;13.60;99.90
31991;DHT22;18508;49.386;8.370;2023-05-07T04:50:47;13.50;99.90
31991;DHT22;18508;49.386;8.370;2023-05-07T04:53:16;13.60;99.90
31991;DHT22;18508;49.386;8.370;2023-05-07T04:55:44;13.60;99.90
31991;DHT22;18508;49.386;8.370;2023-05-07T04:58:13;13.60;99.90
31991;DHT22;18508;49.386;8.370;2023-05-07T05:00:41;13.70;99.90
31991;DHT22;18508;49.386;8.370;2023-05-07T05:03:10;13.70;99.90
31991;DHT22;18508;49.386;8.370;2023-05-07T05:05:40;13.80;99.90
31991;DHT22;18508;49.386;8.370;2023-05-07T05:08:08;13.90;99.90
31991;DHT22;18508;49.386;8.370;2023-05-07T05:10:36;13.90;99.90
31991;DHT22;18508;49.386;8.370;2023-05-07T05:13:05;14.00;99.90
31991;DHT22;18508;49.386;8.370;2023-05-07T05:15:34;14.10;99.90
31991;DHT22;18508;49.386;8.370;2023-05-07T05:18:03;14.10;99.90
31991;DHT22;18508;49.386;8.370;2023-05-07T05:20:31;14.20;99.90
31991;DHT22;18508;49.386;8.370;2023-05-07T05:23:00;14.30;99.90
31991;DHT22;18508;49.386;8.370;2023-05-07T05:25:30;14.30;99.90
31991;DHT22;18508;49.386;8.370;2023-05-07T05:27:58;14.30;99.90
31991;DHT22;18508;49.386;8.370;2023-05-07T05:30:30;14.40;99.90
31991;DHT22;18508;49.386;8.370;2023-05-07T05:32:58;14.50;99.90
31991;DHT22;18508;49.386;8.370;2023-05-07T05:35:29;14.40;99.90
31991;DHT22;18508;49.386;8.370;2023-05-07T05:37:57;14.50;99.90
31991;DHT22;18508;49.386;8.370;2023-05-07T05:40:27;14.60;99.90
31991;DHT22;18508;49.386;8.370;2023-05-07T05:42:55;14.60;99.90
31991;DHT22;18508;49.386;8.370;2023-05-07T05:45:25;14.60;99.90
31991;DHT22;18508;49.386;8.370;2023-05-07T05:47:56;14.60;99.90
31991;DHT22;18508;49.386;8.370;2023-05-07T05:50:24;14.80;99.90
31991;DHT22;18508;49.386;8.370;2023-05-07T05:52:52;14.90;99.90
31991;DHT22;18508;49.386;8.370;2023-05-07T05:55:22;14.90;99.90
31991;DHT22;18508;49.386;8.370;2023-05-07T05:57:52;14.90;99.90
31991;DHT22;18508;49.386;8.370;2023-05-07T06:00:22;15.00;99.90
31991;DHT22;18508;49.386;8.370;2023-05-07T06:02:50;15.10;99.90
31991;DHT22;18508;49.386;8.370;2023-05-07T06:05:18;15.30;99.90
31991;DHT22;18508;49.386;8.370;2023-05-07T06:07:47;15.40;99.90
31991;DHT22;18508;49.386;8.370;2023-05-07T06:10:15;15.50;99.90
31991;DHT22;18508;49.386;8.370;2023-05-07T06:12:44;15.60;99.90
31991;DHT22;18508;49.386;8.370;2023-05-07T06:15:14;15.70;99.90
31991;DHT22;18508;49.386;8.370;2023-05-07T06:17:42;15.90;99.90
31991;DHT22;18508;49.386;8.370;2023-05-07T06:20:11;15.90;99.90
31991;DHT22;18508;49.386;8.370;2023-05-07T06:22:39;16.00;99.90
31991;DHT22;18508;49.386;8.370;2023-05-07T06:25:08;16.00;99.90
31991;DHT22;18508;49.386;8.370;2023-05-07T06:27:36;16.10;99.90
31991;DHT22;18508;49.386;8.370;2023-05-07T06:30:07;16.20;99.90
31991;DHT22;18508;49.386;8.370;2023-05-07T06:32:40;16.30;99.90
31991;DHT22;18508;49.386;8.370;2023-05-07T06:35:09;16.50;99.90
31991;DHT22;18508;49.386;8.370;2023-05-07T06:37:37;16.60;99.90
31991;DHT22;18508;49.386;8.370;2023-05-07T06:40:07;16.70;99.90
31991;DHT22;18508;49.386;8.370;2023-05-07T06:42:36;16.90;99.90
31991;DHT22;18508;49.386;8.370;2023-05-07T06:45:05;17.00;99.90
31991;DHT22;18508;49.386;8.370;2023-05-07T06:47:34;17.20;99.90
31991;DHT22;18508;49.386;8.370;2023-05-07T06:50:05;17.30;99.90
31991;DHT22;18508;49.386;8.370;2023-05-07T06:52:34;17.60;72.80
31991;DHT22;18508;49.386;8.370;2023-05-07T06:55:02;17.70;42.50
31991;DHT22;18508;49.386;8.370;2023-05-07T06:57:31;17.80;7.60
31991;DHT22;18508;49.386;8.370;2023-05-07T07:00:00;17.90;7.50
31991;DHT22;18508;49.386;8.370;2023-05-07T07:02:28;17.90;15.50
31991;DHT22;18508;49.386;8.370;2023-05-07T07:04:56;17.90;1.00
31991;DHT22;18508;49.386;8.370;2023-05-07T07:07:25;18.00;1.20
31991;DHT22;18508;49.386;8.370;2023-05-07T07:09:54;18.00;7.70
31991;DHT22;18508;49.386;8.370;2023-05-07T07:12:22;18.10;9.50
31991;DHT22;18508;49.386;8.370;2023-05-07T07:14:51;18.30;1.00
31991;DHT22;18508;49.386;8.370;2023-05-07T07:17:20;18.40;7.00
31991;DHT22;18508;49.386;8.370;2023-05-07T07:19:48;18.60;1.00
31991;DHT22;18508;49.386;8.370;2023-05-07T07:22:17;18.60;1.00
31991;DHT22;18508;49.386;8.370;2023-05-07T07:24:46;18.70;1.00
31991;DHT22;18508;49.386;8.370;2023-05-07T07:27:14;18.80;1.00
31991;DHT22;18508;49.386;8.370;2023-05-07T07:29:42;19.00;1.00
31991;DHT22;18508;49.386;8.370;2023-05-07T07:32:10;19.00;1.00
31991;DHT22;18508;49.386;8.370;2023-05-07T07:34:38;19.10;1.00
31991;DHT22;18508;49.386;8.370;2023-05-07T07:37:06;19.20;1.00
31991;DHT22;18508;49.386;8.370;2023-05-07T07:39:34;19.40;1.00
31991;DHT22;18508;49.386;8.370;2023-05-07T07:42:06;19.50;1.00
31991;DHT22;18508;49.386;8.370;2023-05-07T07:44:34;19.60;1.00
31991;DHT22;18508;49.386;8.370;2023-05-07T07:47:02;19.60;1.00
31991;DHT22;18508;49.386;8.370;2023-05-07T07:49:32;19.80;1.00
31991;DHT22;18508;49.386;8.370;2023-05-07T07:52:00;19.90;1.00
31991;DHT22;18508;49.386;8.370;2023-05-07T07:54:28;20.00;1.00
31991;DHT22;18508;49.386;8.370;2023-05-07T07:56:58;20.00;1.00
31991;DHT22;18508;49.386;8.370;2023-05-07T07:59:28;19.90;1.00
31991;DHT22;18508;49.386;8.370;2023-05-07T08:01:56;20.20;1.00
31991;DHT22;18508;49.386;8.370;2023-05-07T08:04:24;20.30;1.00
31991;DHT22;18508;49.386;8.370;2023-05-07T08:06:52;20.40;1.00
31991;DHT22;18508;49.386;8.370;2023-05-07T08:09:21;20.50;1.00
31991;DHT22;18508;49.386;8.370;2023-05-07T08:11:49;20.60;1.00
31991;DHT22;18508;49.386;8.370;2023-05-07T08:14:18;20.60;1.00
31991;DHT22;18508;49.386;8.370;2023-05-07T08:16:47;20.80;1.00
31991;DHT22;18508;49.386;8.370;2023-05-07T08:19:16;21.00;1.00
31991;DHT22;18508;49.386;8.370;2023-05-07T08:21:44;21.10;14.40
31991;DHT22;18508;49.386;8.370;2023-05-07T08:24:14;21.20;99.90
31991;DHT22;18508;49.386;8.370;2023-05-07T08:26:43;21.00;90.30
31991;DHT22;18508;49.386;8.370;2023-05-07T08:29:13;20.90;35.40
31991;DHT22;18508;49.386;8.370;2023-05-07T08:31:41;21.00;39.00
31991;DHT22;18508;49.386;8.370;2023-05-07T08:34:10;21.10;93.00
31991;DHT22;18508;49.386;8.370;2023-05-07T08:36:39;21.00;24.00
31991;DHT22;18508;49.386;8.370;2023-05-07T08:39:09;21.10;5.70
31991;DHT22;18508;49.386;8.370;2023-05-07T08:41:37;21.20;16.40
31991;DHT22;18508;49.386;8.370;2023-05-07T08:44:12;21.30;11.60
31991;DHT22;18508;49.386;8.370;2023-05-07T08:46:41;21.50;99.90
31991;DHT22;18508;49.386;8.370;2023-05-07T08:49:11;21.60;99.90
31991;DHT22;18508;49.386;8.370;2023-05-07T08:51:41;21.40;99.90
31991;DHT22;18508;49.386;8.370;2023-05-07T08:54:10;21.30;99.90
31991;DHT22;18508;49.386;8.370;2023-05-07T08:56:41;21.40;1.00
31991;DHT22;18508;49.386;8.370;2023-05-07T08:59:09;21.50;1.00
31991;DHT22;18508;49.386;8.370;2023-05-07T09:01:38;21.40;1.00
31991;DHT22;18508;49.386;8.370;2023-05-07T09:04:06;21.60;1.00
31991;DHT22;18508;49.386;8.370;2023-05-07T09:06:40;21.40;1.00
31991;DHT22;18508;49.386;8.370;2023-05-07T09:09:09;21.40;1.00
31991;DHT22;18508;49.386;8.370;2023-05-07T09:11:37;21.30;1.00
31991;DHT22;18508;49.386;8.370;2023-05-07T09:14:06;21.30;1.00
31991;DHT22;18508;49.386;8.370;2023-05-07T09:16:35;21.40;1.00
31991;DHT22;18508;49.386;8.370;2023-05-07T09:19:05;21.50;1.00
31991;DHT22;18508;49.386;8.370;2023-05-07T09:21:33;21.60;1.00
31991;DHT22;18508;49.386;8.370;2023-05-07T09:24:03;21.60;1.00
31991;DHT22;18508;49.386;8.370;2023-05-07T09:26:32;21.70;1.00
31991;DHT22;18508;49.386;8.370;2023-05-07T09:29:01;21.50;1.00
31991;DHT22;18508;49.386;8.370;2023-05-07T09:31:31;21.60;1.00
31991;DHT22;18508;49.386;8.370;2023-05-07T09:33:59;21.90;1.00
31991;DHT22;18508;49.386;8.370;2023-05-07T09:36:27;22.00;1.00
31991;DHT22;18508;49.386;8.370;2023-05-07T09:38:56;22.20;1.00
31991;DHT22;18508;49.386;8.370;2023-05-07T09:41:30;21.90;1.00
31991;DHT22;18508;49.386;8.370;2023-05-07T09:43:59;22.20;1.00
31991;DHT22;18508;49.386;8.370;2023-05-07T09:46:30;22.30;1.00
31991;DHT22;18508;49.386;8.370;2023-05-07T09:48:59;22.30;1.00
31991;DHT22;18508;49.386;8.370;2023-05-07T09:51:30;22.30;1.00
31991;DHT22;18508;49.386;8.370;2023-05-07T09:54:00;22.40;1.00
31991;DHT22;18508;49.386;8.370;2023-05-07T09:56:32;22.40;1.00
31991;DHT22;18508;49.386;8.370;2023-05-07T09:59:00;22.40;1.00
31991;DHT22;18508;49.386;8.370;2023-05-07T10:01:31;22.40;1.00
31991;DHT22;18508;49.386;8.370;2023-05-07T10:04:01;22.40;1.00
31991;DHT22;18508;49.386;8.370;2023-05-07T10:06:33;22.40;1.00
31991;DHT22;18508;49.386;8.370;2023-05-07T10:09:02;22.50;1.00
31991;DHT22;18508;49.386;8.370;2023-05-07T10:11:34;22.50;1.00
31991;DHT22;18508;49.386;8.370;2023-05-07T10:14:05;22.60;1.00
31991;DHT22;18508;49.386;8.370;2023-05-07T10:16:35;22.90;1.00
31991;DHT22;18508;49.386;8.370;2023-05-07T10:19:04;22.90;1.00
31991;DHT22;18508;49.386;8.370;2023-05-07T10:21:34;22.90;1.00
31991;DHT22;18508;49.386;8.370;2023-05-07T10:24:05;23.10;1.00
31991;DHT22;18508;49.386;8.370;2023-05-07T10:26:43;23.30;1.00
31991;DHT22;18508;49.386;8.370;2023-05-07T10:29:25;23.50;1.00
31991;DHT22;18508;49.386;8.370;2023-05-07T10:32:05;23.70;90.40
31991;DHT22;18508;49.386;8.370;2023-05-07T10:34:41;23.80;55.70
31991;DHT22;18508;49.386;8.370;2023-05-07T10:37:11;23.50;99.90
31991;DHT22;18508;49.386;8.370;2023-05-07T10:39:42;23.50;99.90
31991;DHT22;18508;49.386;8.370;2023-05-07T10:42:13;23.60;99.90
31991;DHT22;18508;49.386;8.370;2023-05-07T10:44:42;23.90;99.90
31991;DHT22;18508;49.386;8.370;2023-05-07T10:47:12;24.10;99.90
31991;DHT22;18508;49.386;8.370;2023-05-07T10:50:20;24.10;99.90
31991;DHT22;18508;49.386;8.370;2023-05-07T10:53:23;24.20;99.90
31991;DHT22;18508;49.386;8.370;2023-05-07T10:56:25;24.50;99.90
31991;DHT22;18508;49.386;8.370;2023-05-07T10:59:33;24.50;99.90
31991;DHT22;18508;49.386;8.370;2023-05-07T11:02:03;24.80;99.90
31991;DHT22;18508;49.386;8.370;2023-05-07T11:04:33;24.90;99.90
31991;DHT22;18508;49.386;8.370;2023-05-07T11:07:35;25.10;99.90
31991;DHT22;18508;49.386;8.370;2023-05-07T11:10:05;25.20;99.90
31991;DHT22;18508;49.386;8.370;2023-05-07T11:12:53;25.40;99.90
31991;DHT22;18508;49.386;8.370;2023-05-07T11:15:50;25.70;99.90
31991;DHT22;18508;49.386;8.370;2023-05-07T11:18:18;25.70;99.90
31991;DHT22;18508;49.386;8.370;2023-05-07T11:20:55;25.30;99.90
31991;DHT22;18508;49.386;8.370;2023-05-07T11:23:54;25.40;99.90
31991;DHT22;18508;49.386;8.370;2023-05-07T11:26:22;25.40;99.90
31991;DHT22;18508;49.386;8.370;2023-05-07T11:28:52;25.50;99.90
31991;DHT22;18508;49.386;8.370;2023-05-07T11:31:24;25.50;99.90
31991;DHT22;18508;49.386;8.370;2023-05-07T11:33:53;25.40;99.90
31991;DHT22;18508;49.386;8.370;2023-05-07T11:36:23;25.50;99.90
31991;DHT22;18508;49.386;8.370;2023-05-07T11:38:52;25.70;99.90
31991;DHT22;18508;49.386;8.370;2023-05-07T11:41:21;26.00;99.90
31991;DHT22;18508;49.386;8.370;2023-05-07T11:43:59;26.00;99.90
31991;DHT22;18508;49.386;8.370;2023-05-07T11:46:30;26.00;99.90
31991;DHT22;18508;49.386;8.370;2023-05-07T11:48:58;25.70;99.90
31991;DHT22;18508;49.386;8.370;2023-05-07T11:51:28;25.80;99.90
31991;DHT22;18508;49.386;8.370;2023-05-07T11:53:56;25.70;99.90
31991;DHT22;18508;49.386;8.370;2023-05-07T11:56:24;25.80;99.90
31991;DHT22;18508;49.386;8.370;2023-05-07T11:58:52;25.90;99.90
31991;DHT22;18508;49.386;8.370;2023-05-07T12:01:20;26.00;99.90
31991;DHT22;18508;49.386;8.370;2023-05-07T12:03:50;26.20;99.90
31991;DHT22;18508;49.386;8.370;2023-05-07T12:06:18;26.40;99.90
31991;DHT22;18508;49.386;8.370;2023-05-07T12:08:47;26.80;99.90
31991;DHT22;18508;49.386;8.370;2023-05-07T12:11:16;26.70;99.90
31991;DHT22;18508;49.386;8.370;2023-05-07T12:13:49;26.50;99.90
31991;DHT22;18508;49.386;8.370;2023-05-07T12:16:17;26.50;99.90
31991;DHT22;18508;49.386;8.370;2023-05-07T12:18:46;26.30;99.90
31991;DHT22;18508;49.386;8.370;2023-05-07T12:21:16;26.40;99.90
31991;DHT22;18508;49.386;8.370;2023-05-07T12:23:45;26.40;99.90
31991;DHT22;18508;49.386;8.370;2023-05-07T12:26:13;26.50;99.90
31991;DHT22;18508;49.386;8.370;2023-05-07T12:28:41;26.80;99.90
31991;DHT22;18508;49.386;8.370;2023-05-07T12:31:10;26.80;99.90
31991;DHT22;18508;49.386;8.370;2023-05-07T12:33:38;26.90;99.90
31991;DHT22;18508;49.386;8.370;2023-05-07T12:36:08;26.90;99.90
31991;DHT22;18508;49.386;8.370;2023-05-07T12:38:38;26.90;99.90
31991;DHT22;18508;49.386;8.370;2023-05-07T12:41:08;26.70;99.90
31991;DHT22;18508;49.386;8.370;2023-05-07T12:43:37;26.50;99.90
31991;DHT22;18508;49.386;8.370;2023-05-07T12:46:06;26.30;99.90
31991;DHT22;18508;49.386;8.370;2023-05-07T12:48:37;26.10;99.90
31991;DHT22;18508;49.386;8.370;2023-05-07T12:51:06;26.20;99.90
31991;DHT22;18508;49.386;8.370;2023-05-07T12:53:41;25.90;99.90
31991;DHT22;18508;49.386;8.370;2023-05-07T12:56:10;25.50;99.90
31991;DHT22;18508;49.386;8.370;2023-05-07T12:58:38;25.20;99.90
31991;DHT22;18508;49.386;8.370;2023-05-07T13:01:07;25.10;99.90
31991;DHT22;18508;49.386;8.370;2023-05-07T13:03:37;24.90;99.90
31991;DHT22;18508;49.386;8.370;2023-05-07T13:06:07;24.60;99.90
31991;DHT22;18508;49.386;8.370;2023-05-07T13:08:39;24.60;99.90
31991;DHT22;18508;49.386;8.370;2023-05-07T13:11:10;24.60;1.00
31991;DHT22;18508;49.386;8.370;2023-05-07T13:13:39;24.50;1.00
31991;DHT22;18508;49.386;8.370;2023-05-07T13:16:10;24.40;1.00
31991;DHT22;18508;49.386;8.370;2023-05-07T13:18:39;24.20;99.90
31991;DHT22;18508;49.386;8.370;2023-05-07T13:21:10;24.00;99.90
31991;DHT22;18508;49.386;8.370;2023-05-07T13:23:41;23.90;81.30
31991;DHT22;18508;49.386;8.370;2023-05-07T13:26:12;23.80;1.00
31991;DHT22;18508;49.386;8.370;2023-05-07T13:28:53;23.60;83.60
31991;DHT22;18508;49.386;8.370;2023-05-07T13:31:21;23.50;66.80
31991;DHT22;18508;49.386;8.370;2023-05-07T13:33:50;23.40;99.90
31991;DHT22;18508;49.386;8.370;2023-05-07T13:36:19;23.20;99.90
31991;DHT22;18508;49.386;8.370;2023-05-07T13:38:49;23.10;99.90
31991;DHT22;18508;49.386;8.370;2023-05-07T13:41:21;22.90;99.90
31991;DHT22;18508;49.386;8.370;2023-05-07T13:43:51;21.90;99.90
31991;DHT22;18508;49.386;8.370;2023-05-07T13:46:19;20.60;99.90
31991;DHT22;18508;49.386;8.370;2023-05-07T13:48:47;19.40;99.90
31991;DHT22;18508;49.386;8.370;2023-05-07T13:51:15;18.50;99.90
31991;DHT22;18508;49.386;8.370;2023-05-07T13:53:44;17.90;99.90
31991;DHT22;18508;49.386;8.370;2023-05-07T13:56:13;17.50;99.90
31991;DHT22;18508;49.386;8.370;2023-05-07T13:58:43;17.00;99.90
31991;DHT22;18508;49.386;8.370;2023-05-07T14:01:25;16.80;99.90
31991;DHT22;18508;49.386;8.370;2023-05-07T14:03:55;16.80;99.90
31991;DHT22;18508;49.386;8.370;2023-05-07T14:06:28;16.80;99.90
31991;DHT22;18508;49.386;8.370;2023-05-07T14:08:56;16.80;99.90
31991;DHT22;18508;49.386;8.370;2023-05-07T14:11:26;16.90;99.90
31991;DHT22;18508;49.386;8.370;2023-05-07T14:13:59;17.00;99.90
31991;DHT22;18508;49.386;8.370;2023-05-07T14:16:27;17.10;99.90
31991;DHT22;18508;49.386;8.370;2023-05-07T14:18:56;17.20;99.90
31991;DHT22;18508;49.386;8.370;2023-05-07T14:21:24;17.30;99.90
31991;DHT22;18508;49.386;8.370;2023-05-07T14:23:53;17.40;99.90
31991;DHT22;18508;49.386;8.370;2023-05-07T14:26:23;17.40;99.90
31991;DHT22;18508;49.386;8.370;2023-05-07T14:28:55;17.40;99.90
31991;DHT22;18508;49.386;8.370;2023-05-07T14:33:53;17.20;99.90
31991;DHT22;18508;49.386;8.370;2023-05-07T14:36:24;17.20;99.90
31991;DHT22;18508;49.386;8.370;2023-05-07T14:38:53;17.30;99.90
31991;DHT22;18508;49.386;8.370;2023-05-07T14:41:22;17.50;99.90
31991;DHT22;18508;49.386;8.370;2023-05-07T14:43:50;17.50;99.90
31991;DHT22;18508;49.386;8.370;2023-05-07T14:46:19;17.60;99.90
31991;DHT22;18508;49.386;8.370;2023-05-07T14:48:47;17.40;99.90
31991;DHT22;18508;49.386;8.370;2023-05-07T14:51:15;17.30;99.90
31991;DHT22;18508;49.386;8.370;2023-05-07T14:53:44;17.10;99.90
31991;DHT22;18508;49.386;8.370;2023-05-07T14:56:12;16.80;99.90
31991;DHT22;18508;49.386;8.370;2023-05-07T14:58:41;16.70;99.90
31991;DHT22;18508;49.386;8.370;2023-05-07T15:01:09;16.60;99.90
31991;DHT22;18508;49.386;8.370;2023-05-07T15:03:39;16.50;99.90
31991;DHT22;18508;49.386;8.370;2023-05-07T15:06:07;16.30;99.90
31991;DHT22;18508;49.386;8.370;2023-05-07T15:08:35;16.20;99.90
31991;DHT22;18508;49.386;8.370;2023-05-07T15:11:03;16.10;99.90
31991;DHT22;18508;49.386;8.370;2023-05-07T15:13:31;16.00;99.90
31991;DHT22;18508;49.386;8.370;2023-05-07T15:15:59;15.90;99.90
31991;DHT22;18508;49.386;8.370;2023-05-07T15:18:27;15.80;99.90
31991;DHT22;18508;49.386;8.370;2023-05-07T15:20:57;15.70;99.90
31991;DHT22;18508;49.386;8.370;2023-05-07T15:23:25;15.80;99.90
31991;DHT22;18508;49.386;8.370;2023-05-07T15:25:53;15.70;99.90
31991;DHT22;18508;49.386;8.370;2023-05-07T15:28:21;15.70;99.90
31991;DHT22;18508;49.386;8.370;2023-05-07T15:30:51;15.70;99.90
31991;DHT22;18508;49.386;8.370;2023-05-07T15:33:22;15.70;99.90
31991;DHT22;18508;49.386;8.370;2023-05-07T15:35:49;15.60;99.90
31991;DHT22;18508;49.386;8.370;2023-05-07T15:38:19;15.60;99.90
31991;DHT22;18508;49.386;8.370;2023-05-07T15:40:47;15.50;99.90
31991;DHT22;18508;49.386;8.370;2023-05-07T15:43:16;15.50;99.90
31991;DHT22;18508;49.386;8.370;2023-05-07T15:45:45;15.40;99.90
31991;DHT22;18508;49.386;8.370;2023-05-07T15:48:13;15.30;99.90
31991;DHT22;18508;49.386;8.370;2023-05-07T15:50:41;15.40;99.90
31991;DHT22;18508;49.386;8.370;2023-05-07T15:53:09;15.40;99.90
31991;DHT22;18508;49.386;8.370;2023-05-07T15:55:41;15.30;99.90